Time;durP1;ratioP1;P1;durP2;ratioP2;P2;SDS_P1;SDS_P2;PMS_P1;PMS_P2;Temp;Humidity;BMP_temperature;BMP_pressure;BME280_temperature;BME280_humidity;BME280_pressure;Samples;Min_cycle;Max_cycle;Signal;HPM_P1;HPM_P2
2023/09/30 00:00:07;;;;;;;0.00;0.00;;;10.80;99.90;;;;;;5104019;28;20047;-89
2023/09/30 00:02:33;;;;;;;0.10;0.10;;;9.80;99.90;;;;;;5088176;28;20071;-88
2023/09/30 00:04:59;;;;;;;1.38;1.02;;;11.00;99.90;;;;;;5114638;28;20508;-89
2023/09/30 00:07:26;;;;;;;8.45;0.70;;;11.10;99.90;;;;;;5121872;28;20044;-88
2023/09/30 00:09:52;;;;;;;0.55;0.32;;;9.80;99.90;;;;;;5130864;28;20046;-88
2023/09/30 00:12:18;;;;;;;0.30;0.22;;;9.80;99.90;;;;;;5107029;28;20020;-89
2023/09/30 00:14:43;;;;;;;0.00;0.00;;;10.70;99.90;;;;;;5141404;28;20026;-88
2023/09/30 00:17:09;;;;;;;0.20;0.20;;;9.70;99.90;;;;;;5103852;28;20608;-88
2023/09/30 00:19:35;;;;;;;0.00;0.00;;;10.50;99.90;;;;;;5106509;28;20027;-88
2023/09/30 00:22:01;;;;;;;0.00;0.00;;;9.70;99.90;;;;;;5123033;28;20090;-88
2023/09/30 00:24:26;;;;;;;0.28;0.22;;;9.70;99.90;;;;;;5120983;28;20020;-88
2023/09/30 00:26:52;;;;;;;0.32;0.32;;;9.60;99.90;;;;;;5139719;28;20051;-89
2023/09/30 00:29:18;;;;;;;2.35;1.65;;;10.40;99.90;;;;;;5119369;28;20047;-89
2023/09/30 00:31:44;;;;;;;0.28;0.15;;;10.20;99.90;;;;;;5125167;28;20031;-88
2023/09/30 00:34:10;;;;;;;1.85;1.08;;;9.50;99.90;;;;;;5124155;28;20031;-89
2023/09/30 00:36:38;;;;;;;0.45;0.40;;;10.70;99.90;;;;;;5105727;28;20126;-89
2023/09/30 00:39:04;;;;;;;1.23;0.77;;;9.50;99.90;;;;;;5088869;28;20400;-88
2023/09/30 00:41:29;;;;;;;0.95;0.75;;;9.60;99.90;;;;;;5105766;28;20050;-89
2023/09/30 00:43:58;;;;;;;0.00;0.00;;;9.70;99.90;;;;;;5105820;28;20036;-89
2023/09/30 00:46:31;;;;;;;0.00;0.00;;;9.80;99.90;;;;;;5105884;28;20103;-89
2023/09/30 00:48:58;;;;;;;0.00;0.00;;;9.90;99.90;;;;;;5105895;28;20103;-88
2023/09/30 00:51:25;;;;;;;5.93;0.43;;;10.00;99.90;;;;;;5096350;28;20036;-89
2023/09/30 00:53:53;;;;;;;1.95;1.00;;;10.00;99.90;;;;;;5084976;28;20036;-89
2023/09/30 00:56:20;;;;;;;0.00;0.00;;;10.00;99.90;;;;;;5068984;28;20123;-89
2023/09/30 00:58:50;;;;;;;1.65;0.55;;;10.00;99.90;;;;;;5104103;28;20023;-88
2023/09/30 01:01:16;;;;;;;0.05;0.00;;;9.90;99.90;;;;;;5104919;28;20050;-88
2023/09/30 01:03:41;;;;;;;0.00;0.00;;;10.40;99.90;;;;;;5088190;28;20035;-88
2023/09/30 01:06:07;;;;;;;0.10;0.10;;;9.80;99.90;;;;;;5123170;28;20047;-88
2023/09/30 01:08:34;;;;;;;0.00;0.00;;;10.20;99.90;;;;;;5087949;28;20442;-88
2023/09/30 01:11:00;;;;;;;0.10;0.10;;;10.30;99.90;;;;;;5105144;28;20405;-88
2023/09/30 01:13:34;;;;;;;0.45;0.45;;;10.50;99.90;;;;;;5123175;28;20073;-88
2023/09/30 01:16:06;;;;;;;1.38;0.55;;;9.80;99.90;;;;;;5105207;28;20405;-88
2023/09/30 01:18:32;;;;;;;0.25;0.25;;;10.70;99.90;;;;;;5084319;28;20110;-88
2023/09/30 01:21:04;;;;;;;2.40;1.23;;;10.00;99.90;;;;;;5100141;28;20067;-88
2023/09/30 01:23:31;;;;;;;1.30;1.20;;;9.90;99.90;;;;;;5080806;28;20036;-88
2023/09/30 01:25:56;;;;;;;0.57;0.43;;;10.00;99.90;;;;;;5080936;28;20048;-88
2023/09/30 01:28:23;;;;;;;1.65;0.45;;;11.30;99.90;;;;;;5076069;28;20115;-88
2023/09/30 01:30:49;;;;;;;0.00;0.00;;;10.10;99.90;;;;;;5084253;28;20059;-88
2023/09/30 01:33:18;;;;;;;2.90;1.08;;;10.00;99.90;;;;;;5100742;28;20075;-88
2023/09/30 01:35:44;;;;;;;0.13;0.13;;;10.80;99.90;;;;;;5102231;28;20036;-88
2023/09/30 01:38:10;;;;;;;0.30;0.25;;;10.60;99.90;;;;;;5083913;28;20493;-88
2023/09/30 01:40:37;;;;;;;0.17;0.15;;;10.10;99.90;;;;;;5102555;28;20048;-89
2023/09/30 01:43:03;;;;;;;0.90;0.50;;;10.10;99.90;;;;;;5083984;28;20051;-88
2023/09/30 01:45:29;;;;;;;2.85;1.30;;;10.10;99.90;;;;;;5084233;28;20048;-89
2023/09/30 01:47:57;;;;;;;0.00;0.00;;;10.70;99.90;;;;;;5101164;28;20112;-89
2023/09/30 01:50:23;;;;;;;0.80;0.80;;;10.10;99.90;;;;;;5102104;28;20070;-88
2023/09/30 01:52:49;;;;;;;0.00;0.00;;;10.10;99.90;;;;;;5100287;28;20052;-88
2023/09/30 01:55:14;;;;;;;0.38;0.35;;;11.10;99.90;;;;;;5100558;28;20481;-88
2023/09/30 01:57:40;;;;;;;0.00;0.00;;;10.20;99.90;;;;;;5101171;28;20047;-88
2023/09/30 02:00:09;;;;;;;0.00;0.00;;;10.00;99.90;;;;;;5101999;28;20090;-89
2023/09/30 02:02:36;;;;;;;2.00;0.43;;;10.10;99.90;;;;;;5100684;28;20550;-89
2023/09/30 02:05:02;;;;;;;0.90;0.77;;;10.10;99.90;;;;;;5083728;28;20485;-89
2023/09/30 02:07:29;;;;;;;0.00;0.00;;;10.20;99.90;;;;;;5083518;28;20538;-89
2023/09/30 02:09:57;;;;;;;0.15;0.15;;;10.40;99.90;;;;;;5083995;28;20086;-89
2023/09/30 02:12:23;;;;;;;0.05;0.05;;;10.50;99.90;;;;;;5100056;28;20393;-89
2023/09/30 02:14:48;;;;;;;0.55;0.08;;;10.70;99.90;;;;;;5083148;28;20118;-89
2023/09/30 02:17:14;;;;;;;0.00;0.00;;;10.70;99.90;;;;;;5087740;28;20127;-89
2023/09/30 02:19:40;;;;;;;0.25;0.25;;;10.70;99.90;;;;;;5101275;28;20075;-88
2023/09/30 02:22:06;;;;;;;1.10;0.25;;;10.60;99.90;;;;;;5083658;28;20040;-89
2023/09/30 02:24:32;;;;;;;0.00;0.00;;;10.60;99.90;;;;;;5083568;28;20496;-89
2023/09/30 02:26:58;;;;;;;0.10;0.10;;;11.30;99.90;;;;;;5119070;28;20046;-90
2023/09/30 02:29:24;;;;;;;0.00;0.00;;;11.00;99.90;;;;;;5087195;28;20067;-90
2023/09/30 02:31:52;;;;;;;1.20;1.10;;;10.70;99.90;;;;;;5086597;28;20043;-89
2023/09/30 02:34:20;;;;;;;17.83;1.35;;;11.60;99.90;;;;;;5103250;28;20062;-89
2023/09/30 02:36:46;;;;;;;0.68;0.52;;;10.70;99.90;;;;;;5121672;28;20043;-89
2023/09/30 02:39:11;;;;;;;0.10;0.10;;;10.70;99.90;;;;;;5121414;28;20165;-89
2023/09/30 02:41:37;;;;;;;0.03;0.03;;;12.00;99.90;;;;;;5086236;28;20047;-88
2023/09/30 02:44:04;;;;;;;0.20;0.20;;;11.60;99.90;;;;;;5103602;28;20040;-89
2023/09/30 02:46:39;;;;;;;0.10;0.05;;;10.60;99.90;;;;;;5086933;28;20513;-89
2023/09/30 02:49:05;;;;;;;0.60;0.45;;;11.70;99.90;;;;;;5121709;28;20047;-89
2023/09/30 02:51:33;;;;;;;0.73;0.68;;;10.60;99.90;;;;;;5076377;28;20036;-89
2023/09/30 02:53:59;;;;;;;0.32;0.32;;;10.70;99.90;;;;;;5082741;28;20040;-89
2023/09/30 02:56:26;;;;;;;3.60;0.60;;;10.80;99.90;;;;;;5100807;28;20550;-89
2023/09/30 02:58:52;;;;;;;0.20;0.20;;;10.80;99.90;;;;;;5082675;28;20044;-89
2023/09/30 03:01:17;;;;;;;0.00;0.00;;;10.80;99.90;;;;;;5065946;28;20040;-89
2023/09/30 03:03:44;;;;;;;3.67;1.45;;;10.80;99.90;;;;;;5100910;28;20063;-89
2023/09/30 03:06:10;;;;;;;0.75;0.65;;;10.90;99.90;;;;;;5101148;28;20048;-89
2023/09/30 03:08:38;;;;;;;0.10;0.10;;;10.90;99.90;;;;;;5066045;28;20047;-89
2023/09/30 03:11:04;;;;;;;0.10;0.10;;;10.90;99.90;;;;;;5082718;28;20035;-89
2023/09/30 03:13:30;;;;;;;0.47;0.35;;;10.80;99.90;;;;;;5082584;28;20111;-89
2023/09/30 03:16:01;;;;;;;1.13;0.80;;;11.00;99.90;;;;;;5065824;28;20048;-89
2023/09/30 03:18:28;;;;;;;1.50;1.30;;;10.60;99.90;;;;;;5100626;28;20077;-89
2023/09/30 03:21:00;;;;;;;2.03;0.73;;;11.90;99.90;;;;;;5082830;28;20489;-89
2023/09/30 03:23:30;;;;;;;0.10;0.10;;;10.60;99.90;;;;;;5100147;28;20075;-89
2023/09/30 03:25:57;;;;;;;0.70;0.52;;;10.50;99.90;;;;;;5092604;28;20043;-89
2023/09/30 03:28:23;;;;;;;3.78;1.73;;;11.00;99.90;;;;;;5092743;28;20069;-89
2023/09/30 03:30:48;;;;;;;0.70;0.65;;;10.40;99.90;;;;;;5128218;28;20032;-88
2023/09/30 03:33:17;;;;;;;1.60;1.30;;;10.50;99.90;;;;;;5127612;28;20115;-89
2023/09/30 03:35:44;;;;;;;1.55;1.05;;;11.40;99.90;;;;;;5127482;28;20039;-89
2023/09/30 03:38:12;;;;;;;0.03;0.03;;;11.70;99.90;;;;;;5109741;28;20465;-89
2023/09/30 03:40:39;;;;;;;1.10;0.20;;;11.50;99.90;;;;;;5109737;28;20034;-89
2023/09/30 03:43:05;;;;;;;5.50;0.60;;;10.80;99.90;;;;;;5092755;28;20040;-88
2023/09/30 03:45:36;;;;;;;0.00;0.00;;;10.80;99.90;;;;;;5109684;28;20043;-89
2023/09/30 03:48:02;;;;;;;0.03;0.03;;;12.00;99.90;;;;;;5127912;28;20044;-89
2023/09/30 03:50:30;;;;;;;13.52;0.95;;;10.80;99.90;;;;;;5128132;28;20036;-89
2023/09/30 03:53:02;;;;;;;0.30;0.17;;;11.60;99.90;;;;;;5109358;28;20065;-87
2023/09/30 03:55:29;;;;;;;0.00;0.00;;;10.70;99.90;;;;;;5109288;28;20039;-88
2023/09/30 03:57:55;;;;;;;0.40;0.40;;;9.70;99.90;;;;;;5127580;28;20043;-89
2023/09/30 04:00:24;;;;;;;0.93;0.65;;;11.00;99.90;;;;;;5109566;28;20047;-89
2023/09/30 04:02:58;;;;;;;0.20;0.20;;;11.10;99.90;;;;;;5109496;28;20064;-89
2023/09/30 04:05:29;;;;;;;1.88;0.20;;;10.40;99.90;;;;;;5127773;28;20442;-89
2023/09/30 04:07:58;;;;;;;1.23;0.77;;;10.40;99.90;;;;;;5128065;28;20040;-89
2023/09/30 04:10:23;;;;;;;0.25;0.25;;;10.30;99.90;;;;;;5127606;28;20042;-89
2023/09/30 04:12:49;;;;;;;0.30;0.20;;;10.60;99.90;;;;;;5109239;28;20396;-89
2023/09/30 04:15:15;;;;;;;0.00;0.00;;;10.30;99.90;;;;;;5127489;28;20040;-88
2023/09/30 04:17:41;;;;;;;1.30;1.20;;;11.20;99.90;;;;;;5092081;28;20044;-89
2023/09/30 04:20:10;;;;;;;0.00;0.00;;;10.50;99.90;;;;;;5127472;28;20504;-89
2023/09/30 04:22:36;;;;;;;0.20;0.20;;;10.20;99.90;;;;;;5127378;28;20051;-89
2023/09/30 04:25:08;;;;;;;0.00;0.00;;;11.40;99.90;;;;;;5109417;28;20053;-89
2023/09/30 04:27:34;;;;;;;0.10;0.10;;;10.10;99.90;;;;;;5109482;28;20039;-89
2023/09/30 04:30:00;;;;;;;1.08;0.98;;;11.40;99.90;;;;;;5127469;28;20096;-89
2023/09/30 04:32:36;;;;;;;0.35;0.35;;;10.70;99.90;;;;;;5110799;28;20048;-89
2023/09/30 04:35:04;;;;;;;1.55;0.10;;;11.10;99.90;;;;;;5124950;28;20063;-89
2023/09/30 04:37:29;;;;;;;2.00;0.45;;;10.20;99.90;;;;;;5106097;28;20066;-88
2023/09/30 04:39:58;;;;;;;0.30;0.30;;;10.80;99.90;;;;;;5124272;28;20040;-89
2023/09/30 04:42:27;;;;;;;1.30;0.52;;;9.90;99.90;;;;;;5123733;28;20119;-89
2023/09/30 04:44:55;;;;;;;0.32;0.32;;;10.20;99.90;;;;;;5124205;28;20069;-89
2023/09/30 04:47:21;;;;;;;1.08;1.00;;;10.20;99.90;;;;;;5106164;28;20378;-89
2023/09/30 04:49:47;;;;;;;1.20;0.77;;;11.40;99.90;;;;;;5088840;28;20447;-89
2023/09/30 04:52:15;;;;;;;0.82;0.77;;;9.40;99.90;;;;;;5123824;28;20131;-89
2023/09/30 04:54:41;;;;;;;0.10;0.10;;;10.20;99.90;;;;;;5105603;28;20040;-90
2023/09/30 04:57:09;;;;;;;0.08;0.08;;;10.10;99.90;;;;;;5105599;28;20046;-90
2023/09/30 04:59:35;;;;;;;0.00;0.00;;;10.10;99.90;;;;;;5088783;28;20048;-90
2023/09/30 05:02:01;;;;;;;1.13;0.85;;;10.20;99.90;;;;;;5123880;28;20067;-90
2023/09/30 05:04:27;;;;;;;0.70;0.70;;;10.10;99.90;;;;;;5104552;28;20583;-89
2023/09/30 05:06:52;;;;;;;0.93;0.82;;;11.20;99.90;;;;;;5123370;28;20044;-89
2023/09/30 05:09:18;;;;;;;0.32;0.30;;;10.00;99.90;;;;;;5088630;28;20069;-89
2023/09/30 05:11:51;;;;;;;0.00;0.00;;;10.40;99.90;;;;;;5088452;28;20040;-89
2023/09/30 05:14:16;;;;;;;0.00;0.00;;;9.90;99.90;;;;;;5105141;28;20063;-89
2023/09/30 05:16:43;;;;;;;0.43;0.28;;;10.70;99.90;;;;;;5123235;28;20055;-89
2023/09/30 05:19:09;;;;;;;0.50;0.50;;;11.00;99.90;;;;;;5079026;28;20079;-89
2023/09/30 05:21:36;;;;;;;0.00;0.00;;;9.80;99.90;;;;;;5095984;28;20105;-90
2023/09/30 05:24:02;;;;;;;0.10;0.10;;;9.70;99.90;;;;;;5077880;28;20493;-89
2023/09/30 05:26:28;;;;;;;0.00;0.00;;;9.70;99.90;;;;;;5094223;28;20082;-89
2023/09/30 05:28:56;;;;;;;4.15;1.25;;;9.60;99.90;;;;;;5094376;28;20397;-89
2023/09/30 05:31:21;;;;;;;0.55;0.55;;;9.60;99.90;;;;;;5077812;28;20109;-89
2023/09/30 05:33:47;;;;;;;1.77;0.30;;;9.60;99.90;;;;;;5077452;28;20040;-89
2023/09/30 05:36:13;;;;;;;0.00;0.00;;;9.50;99.90;;;;;;5094272;28;20040;-90
2023/09/30 05:38:42;;;;;;;0.90;0.90;;;9.60;99.90;;;;;;5077033;28;20523;-89
2023/09/30 05:41:08;;;;;;;14.80;0.35;;;9.50;99.90;;;;;;5094054;28;20485;-90
2023/09/30 05:43:34;;;;;;;3.28;0.82;;;10.70;99.90;;;;;;5094217;28;20032;-89
2023/09/30 05:45:59;;;;;;;0.50;0.35;;;10.60;99.90;;;;;;5094967;28;20123;-89
2023/09/30 05:48:28;;;;;;;1.45;1.10;;;9.50;99.90;;;;;;5094664;28;20047;-89
2023/09/30 05:50:54;;;;;;;0.35;0.35;;;9.50;99.90;;;;;;5095461;28;20051;-89
2023/09/30 05:53:20;;;;;;;0.20;0.20;;;9.50;99.90;;;;;;5093696;28;20044;-89
2023/09/30 05:55:46;;;;;;;1.45;0.22;;;10.10;99.90;;;;;;5093583;28;20072;-89
2023/09/30 05:58:14;;;;;;;0.22;0.15;;;9.40;99.90;;;;;;5093639;28;20075;-89
2023/09/30 06:00:41;;;;;;;0.73;0.63;;;9.40;99.90;;;;;;5076648;28;20501;-89
2023/09/30 06:03:07;;;;;;;0.00;0.00;;;9.40;99.90;;;;;;5093585;28;20336;-89
2023/09/30 06:05:33;;;;;;;7.82;0.57;;;10.80;99.90;;;;;;5066694;28;20048;-89
2023/09/30 06:08:04;;;;;;;0.85;0.22;;;9.50;99.90;;;;;;5072925;28;20107;-89
2023/09/30 06:10:30;;;;;;;0.28;0.20;;;9.40;99.90;;;;;;5072863;28;20052;-89
2023/09/30 06:12:57;;;;;;;0.40;0.30;;;10.30;99.90;;;;;;5078642;28;20040;-89
2023/09/30 06:15:25;;;;;;;0.00;0.00;;;9.90;99.90;;;;;;5076624;28;20089;-89
2023/09/30 06:17:55;;;;;;;0.60;0.40;;;10.40;99.90;;;;;;5093619;28;20070;-89
2023/09/30 06:20:22;;;;;;;0.60;0.60;;;10.30;99.90;;;;;;5093902;28;20095;-90
2023/09/30 06:22:50;;;;;;;0.08;0.08;;;9.50;99.90;;;;;;5094749;28;20413;-90
2023/09/30 06:25:20;;;;;;;0.25;0.25;;;9.50;99.90;;;;;;5094471;28;20073;-89
2023/09/30 06:27:47;;;;;;;0.38;0.30;;;9.60;99.90;;;;;;5076332;28;20088;-89
2023/09/30 06:30:17;;;;;;;0.13;0.10;;;10.50;99.90;;;;;;5094518;28;20044;-89
2023/09/30 06:32:45;;;;;;;0.17;0.17;;;9.70;99.90;;;;;;5093188;28;20082;-89
2023/09/30 06:35:11;;;;;;;0.28;0.28;;;9.80;99.90;;;;;;5094477;28;20039;-90
2023/09/30 06:37:38;;;;;;;0.15;0.03;;;9.90;99.90;;;;;;5092395;28;20477;-90
2023/09/30 06:40:11;;;;;;;1.27;1.00;;;10.00;99.90;;;;;;5076756;28;20489;-90
2023/09/30 06:42:37;;;;;;;0.20;0.20;;;10.10;99.90;;;;;;5095602;28;20040;-89
2023/09/30 06:45:06;;;;;;;0.00;0.00;;;10.60;99.90;;;;;;5093720;28;20055;-89
2023/09/30 06:47:33;;;;;;;2.58;0.60;;;10.30;99.90;;;;;;5093665;28;20036;-89
2023/09/30 06:50:07;;;;;;;0.05;0.05;;;10.50;99.90;;;;;;5095269;28;20043;-89
2023/09/30 06:52:37;;;;;;;6.43;0.60;;;10.60;99.90;;;;;;5094703;28;20495;-89
2023/09/30 06:55:06;;;;;;;2.17;0.93;;;11.10;99.90;;;;;;5094678;28;20032;-89
2023/09/30 06:57:36;;;;;;;0.10;0.10;;;9.70;99.90;;;;;;5075958;28;20036;-89
2023/09/30 07:00:09;;;;;;;1.05;0.30;;;11.20;99.90;;;;;;5094826;28;20119;-89
2023/09/30 07:02:36;;;;;;;0.10;0.10;;;11.10;99.90;;;;;;5095056;28;20055;-89
2023/09/30 07:05:12;;;;;;;0.55;0.45;;;12.40;99.90;;;;;;5095069;28;20048;-89
2023/09/30 07:07:38;;;;;;;;;;;11.30;99.90;;;;;;5094355;28;20087;-89
2023/09/30 07:10:05;;;;;;;1.50;1.03;;;11.40;99.90;;;;;;5093450;28;19950;-89
2023/09/30 07:12:35;;;;;;;0.17;0.17;;;11.50;99.90;;;;;;5076041;28;20648;-89
2023/09/30 07:15:02;;;;;;;5.78;2.05;;;11.70;99.90;;;;;;5076282;28;20512;-89
2023/09/30 07:17:28;;;;;;;0.38;0.38;;;11.80;99.90;;;;;;5094228;28;20036;-89
2023/09/30 07:19:54;;;;;;;0.82;0.80;;;11.90;99.90;;;;;;5096041;28;20527;-89
2023/09/30 07:22:19;;;;;;;0.85;0.63;;;12.00;99.90;;;;;;5095840;28;20404;-89
2023/09/30 07:24:45;;;;;;;1.02;0.77;;;12.40;99.90;;;;;;5096000;28;20044;-90
2023/09/30 07:27:11;;;;;;;8.57;1.27;;;12.50;99.90;;;;;;5095903;28;20043;-89
2023/09/30 07:29:38;;;;;;;0.00;0.00;;;13.00;99.90;;;;;;5127168;28;20056;-91
2023/09/30 07:32:05;;;;;;;0.55;0.40;;;12.40;99.90;;;;;;5102261;28;20040;-91
2023/09/30 07:34:31;;;;;;;0.17;0.17;;;13.10;99.90;;;;;;5111450;28;20027;-91
2023/09/30 07:36:56;;;;;;;1.15;0.75;;;13.90;99.90;;;;;;5111066;28;20043;-91
2023/09/30 07:39:22;;;;;;;2.08;1.13;;;13.10;99.90;;;;;;5092582;28;20040;-90
2023/09/30 07:41:47;;;;;;;0.55;0.47;;;13.80;99.90;;;;;;5101530;28;20044;-91
2023/09/30 07:44:13;;;;;;;0.45;0.45;;;13.60;99.90;;;;;;5110183;28;20054;-91
2023/09/30 07:46:43;;;;;;;0.43;0.20;;;12.80;99.90;;;;;;5096902;28;20062;-91
2023/09/30 07:49:11;;;;;;;0.17;0.17;;;12.80;99.90;;;;;;5106671;28;20069;-91
2023/09/30 07:51:39;;;;;;;1.35;0.98;;;13.80;99.90;;;;;;5086715;28;20036;-90
2023/09/30 07:54:05;;;;;;;0.30;0.30;;;13.40;99.90;;;;;;5101297;28;20055;-91
2023/09/30 07:57:14;;;;;;;0.40;0.40;;;13.00;99.90;;;;;;5471107;22;20051;-77
2023/09/30 07:59:40;;;;;;;2.88;1.63;;;13.10;99.90;;;;;;5101576;28;20063;-77
2023/09/30 08:02:06;;;;;;;0.38;0.38;;;13.20;99.90;;;;;;5108740;28;20071;-76
2023/09/30 08:04:32;;;;;;;3.05;1.15;;;13.30;99.90;;;;;;5099201;28;20028;-77
2023/09/30 08:06:58;;;;;;;0.98;0.90;;;13.60;99.90;;;;;;5104011;28;20393;-76
2023/09/30 08:09:24;;;;;;;0.68;0.43;;;13.50;99.90;;;;;;5099708;28;20076;-76
2023/09/30 08:11:50;;;;;;;0.20;0.20;;;13.60;99.90;;;;;;5104580;28;20412;-77
2023/09/30 08:14:16;;;;;;;1.27;0.77;;;13.70;99.90;;;;;;5107173;28;20048;-76
2023/09/30 08:16:42;;;;;;;0.70;0.57;;;13.80;99.90;;;;;;5102521;28;20048;-77
2023/09/30 08:19:09;;;;;;;2.03;1.85;;;13.90;99.90;;;;;;5101696;28;20047;-77
2023/09/30 08:21:34;;;;;;;1.30;1.20;;;14.00;99.90;;;;;;5101758;28;20494;-76
2023/09/30 08:24:02;;;;;;;1.38;1.27;;;14.10;99.90;;;;;;5104651;28;20077;-76
2023/09/30 08:26:27;;;;;;;0.77;0.70;;;14.20;99.90;;;;;;5104374;28;20572;-76
2023/09/30 08:28:53;;;;;;;6.80;1.38;;;14.30;99.90;;;;;;5102901;28;20126;-76
2023/09/30 08:31:19;;;;;;;1.13;0.55;;;14.30;99.90;;;;;;5106127;28;20115;-77
2023/09/30 08:33:45;;;;;;;0.70;0.52;;;14.40;99.90;;;;;;5104446;28;20048;-76
2023/09/30 08:36:11;;;;;;;0.10;0.10;;;14.50;99.90;;;;;;5101121;28;20114;-76
2023/09/30 08:38:38;;;;;;;0.17;0.17;;;14.60;99.90;;;;;;5101045;28;20047;-76
2023/09/30 08:41:07;;;;;;;1.95;0.50;;;14.70;50.50;;;;;;5102991;28;20044;-76
2023/09/30 08:43:38;;;;;;;0.55;0.35;;;14.80;1.00;;;;;;5086285;28;20050;-76
2023/09/30 08:46:05;;;;;;;1.00;0.35;;;14.80;1.00;;;;;;5103196;28;20354;-76
2023/09/30 08:48:32;;;;;;;0.75;0.60;;;14.90;1.00;;;;;;5100725;28;20071;-75
2023/09/30 08:50:59;;;;;;;0.25;0.15;;;15.10;99.90;;;;;;5100579;28;20211;-75
2023/09/30 08:53:25;;;;;;;0.10;0.10;;;15.20;99.90;;;;;;5103271;28;20408;-75
2023/09/30 08:55:55;;;;;;;1.45;0.80;;;15.30;99.90;;;;;;5103522;28;20481;-76
2023/09/30 08:58:27;;;;;;;1.38;0.55;;;15.40;99.90;;;;;;5101923;28;20097;-75
2023/09/30 09:00:53;;;;;;;1.73;1.02;;;15.40;99.90;;;;;;5100563;28;20531;-75
2023/09/30 09:03:20;;;;;;;0.38;0.28;;;15.40;1.00;;;;;;5101355;28;20043;-75
2023/09/30 09:05:47;;;;;;;0.28;0.28;;;15.50;99.90;;;;;;5098218;22;20053;-89
2023/09/30 09:11:23;;;;;;;0.00;0.00;;;15.70;1.00;;;;;;5219624;22;20334;-77
2023/09/30 09:13:56;;;;;;;0.20;0.20;;;15.80;99.90;;;;;;5101069;28;20437;-76
2023/09/30 09:16:23;;;;;;;0.77;0.43;;;15.90;12.00;;;;;;5103845;28;20036;-77
2023/09/30 09:18:49;;;;;;;0.25;0.10;;;16.00;99.90;;;;;;5108593;28;20210;-77
2023/09/30 09:21:16;;;;;;;0.95;0.08;;;16.20;99.90;;;;;;5101950;28;20531;-77
2023/09/30 09:23:44;;;;;;;6.47;1.40;;;16.60;99.90;;;;;;5102425;28;20048;-77
2023/09/30 09:26:11;;;;;;;0.10;0.10;;;17.00;1.00;;;;;;5100259;28;20484;-77
2023/09/30 09:28:38;;;;;;;1.00;0.85;;;17.50;1.00;;;;;;5097843;28;20065;-77
2023/09/30 09:31:21;;;;;;;0.20;0.20;;;17.90;99.90;;;;;;5101434;28;20036;-77
2023/09/30 09:33:47;;;;;;;0.05;0.05;;;18.20;23.50;;;;;;5100995;28;20111;-77
2023/09/30 09:36:13;;;;;;;0.28;0.10;;;18.50;1.00;;;;;;5104492;28;20173;-77
2023/09/30 09:38:52;;;;;;;4.25;2.00;;;18.70;99.90;;;;;;5105112;28;20077;-78
2023/09/30 09:41:19;;;;;;;0.30;0.30;;;19.20;1.00;;;;;;5094693;28;20087;-78
2023/09/30 09:43:48;;;;;;;0.75;0.38;;;19.50;99.90;;;;;;5108673;28;20107;-77
2023/09/30 09:46:13;;;;;;;0.00;0.00;;;19.70;99.90;;;;;;5106514;28;20048;-77
2023/09/30 09:48:40;;;;;;;0.88;0.30;;;19.80;99.90;;;;;;5102782;28;20116;-77
2023/09/30 09:51:07;;;;;;;0.80;0.55;;;19.80;99.90;;;;;;5103143;28;20047;-77
2023/09/30 09:53:38;;;;;;;1.80;0.60;;;19.80;99.90;;;;;;5105664;28;20051;-77
2023/09/30 09:56:07;;;;;;;1.50;0.60;;;19.90;99.90;;;;;;5105718;28;20036;-77
2023/09/30 09:58:35;;;;;;;0.45;0.30;;;19.80;99.90;;;;;;5093704;28;20501;-77
2023/09/30 10:01:05;;;;;;;0.00;0.00;;;19.80;99.90;;;;;;5084294;28;20052;-77
2023/09/30 10:03:32;;;;;;;0.52;0.47;;;19.80;99.90;;;;;;5104522;28;20516;-77
2023/09/30 10:06:01;;;;;;;0.70;0.68;;;20.00;99.90;;;;;;5105654;28;20050;-77
2023/09/30 10:08:43;;;;;;;0.38;0.38;;;19.90;99.90;;;;;;5104374;28;20457;-77
2023/09/30 10:11:20;;;;;;;10.43;1.50;;;20.00;99.90;;;;;;5102021;28;20048;-77
2023/09/30 10:13:57;;;;;;;1.50;1.02;;;20.10;99.90;;;;;;5105344;28;20042;-77
2023/09/30 10:16:37;;;;;;;0.80;0.55;;;20.20;99.90;;;;;;5105306;28;20040;-77
2023/09/30 10:19:18;;;;;;;0.10;0.10;;;20.30;99.90;;;;;;5100099;28;20123;-77
2023/09/30 10:22:18;;;;;;;0.10;0.10;;;20.40;99.90;;;;;;5103435;28;20092;-77
2023/09/30 10:24:44;;;;;;;0.57;0.57;;;20.50;99.90;;;;;;5102773;28;20518;-77
2023/09/30 10:27:22;;;;;;;2.58;0.57;;;20.50;99.90;;;;;;5105035;28;20027;-77
2023/09/30 10:29:53;;;;;;;0.00;0.00;;;20.20;64.90;;;;;;5103788;28;20043;-77
2023/09/30 10:32:18;;;;;;;0.43;0.43;;;20.20;89.70;;;;;;5101888;28;20040;-77
2023/09/30 10:34:52;;;;;;;0.73;0.63;;;20.10;89.60;;;;;;5102123;28;20047;-77
2023/09/30 10:37:24;;;;;;;6.85;1.90;;;20.00;54.90;;;;;;5094332;28;20040;-77
2023/09/30 10:40:00;;;;;;;2.63;1.10;;;19.80;24.90;;;;;;5101531;28;20036;-77
2023/09/30 10:42:44;;;;;;;0.13;0.13;;;19.80;67.20;;;;;;5094295;28;20093;-77
2023/09/30 10:45:38;;;;;;;3.63;0.95;;;20.00;34.00;;;;;;5103641;28;20084;-77
2023/09/30 10:48:25;;;;;;;0.00;0.00;;;20.20;81.80;;;;;;5103931;28;20085;-77
2023/09/30 10:50:57;;;;;;;0.08;0.08;;;20.50;99.40;;;;;;5101227;28;20059;-77
2023/09/30 10:53:23;;;;;;;0.20;0.10;;;21.00;92.80;;;;;;5104090;28;20056;-77
2023/09/30 10:55:58;;;;;;;0.00;0.00;;;21.50;55.90;;;;;;5104726;28;20119;-77
2023/09/30 10:58:50;;;;;;;0.57;0.32;;;21.80;95.90;;;;;;5102715;28;20054;-77
2023/09/30 11:01:20;;;;;;;0.85;0.52;;;22.10;93.00;;;;;;5101775;28;20394;-77
2023/09/30 11:03:47;;;;;;;0.08;0.08;;;22.30;42.10;;;;;;5104863;28;20072;-77
2023/09/30 11:06:20;;;;;;;0.20;0.17;;;22.20;1.00;;;;;;5104704;28;20081;-77
2023/09/30 11:09:03;;;;;;;4.68;0.35;;;22.30;1.00;;;;;;5092748;28;20040;-77
2023/09/30 11:11:52;;;;;;;0.00;0.00;;;22.50;1.00;;;;;;5101070;28;20052;-77
2023/09/30 11:14:29;;;;;;;1.13;0.52;;;22.80;1.00;;;;;;5104446;28;20040;-77
2023/09/30 11:16:57;;;;;;;0.65;0.50;;;23.00;1.00;;;;;;5093469;28;20087;-77
2023/09/30 11:19:23;;;;;;;3.80;1.05;;;23.10;1.00;;;;;;5101077;28;20040;-77
2023/09/30 11:21:51;;;;;;;0.25;0.20;;;23.20;1.00;;;;;;5103226;28;20047;-77
2023/09/30 11:24:18;;;;;;;1.70;0.93;;;23.30;1.00;;;;;;5104009;28;20038;-77
2023/09/30 11:26:46;;;;;;;0.20;0.20;;;23.20;1.00;;;;;;5088518;28;20048;-77
2023/09/30 11:29:15;;;;;;;8.82;1.15;;;23.40;1.00;;;;;;5091667;28;20038;-77
2023/09/30 11:31:42;;;;;;;0.20;0.20;;;23.40;1.00;;;;;;5095374;28;20048;-78
2023/09/30 11:34:09;;;;;;;0.80;0.80;;;23.40;1.00;;;;;;5091840;28;20040;-77
2023/09/30 11:36:36;;;;;;;0.20;0.10;;;23.20;1.00;;;;;;5098660;28;20135;-77
2023/09/30 11:39:02;;;;;;;0.10;0.10;;;23.30;1.00;;;;;;5102090;28;20032;-77
2023/09/30 11:41:38;;;;;;;0.20;0.20;;;23.20;99.90;;;;;;5102211;28;20038;-77
2023/09/30 11:44:12;;;;;;;0.10;0.10;;;22.60;99.90;;;;;;5102015;28;20071;-77
2023/09/30 11:47:00;;;;;;;0.00;0.00;;;22.40;99.90;;;;;;5103164;28;20068;-77
2023/09/30 11:49:27;;;;;;;0.00;0.00;;;22.30;99.90;;;;;;5094871;28;20036;-77
2023/09/30 11:51:54;;;;;;;0.70;0.20;;;22.10;99.90;;;;;;5102759;28;20086;-77
2023/09/30 11:54:19;;;;;;;0.70;0.47;;;22.00;99.90;;;;;;5104525;28;20067;-77
2023/09/30 11:56:47;;;;;;;0.10;0.10;;;21.80;99.90;;;;;;5107042;28;20571;-77
2023/09/30 11:59:13;;;;;;;0.73;0.40;;;22.10;99.90;;;;;;5107647;28;20405;-76
2023/09/30 12:01:38;;;;;;;1.10;0.68;;;22.30;99.90;;;;;;5104686;28;20082;-77
2023/09/30 12:04:04;;;;;;;0.32;0.25;;;22.70;99.90;;;;;;5104984;28;20032;-77
2023/09/30 12:06:31;;;;;;;2.45;1.35;;;23.00;99.90;;;;;;5088074;28;20044;-77
2023/09/30 12:08:57;;;;;;;0.45;0.40;;;23.00;99.90;;;;;;5107856;28;20076;-77
2023/09/30 12:11:23;;;;;;;0.20;0.20;;;23.10;99.90;;;;;;5107293;28;20134;-77
2023/09/30 12:13:50;;;;;;;0.20;0.20;;;23.10;99.90;;;;;;5086011;28;20503;-77
2023/09/30 12:16:17;;;;;;;3.13;1.23;;;22.70;99.90;;;;;;5104228;28;20035;-77
2023/09/30 12:18:43;;;;;;;0.63;0.40;;;22.00;99.90;;;;;;5088093;28;20048;-77
2023/09/30 12:21:13;;;;;;;0.55;0.45;;;21.60;99.90;;;;;;5107817;28;20046;-77
2023/09/30 12:23:39;;;;;;;8.20;1.15;;;21.00;99.90;;;;;;5106977;28;20040;-76
2023/09/30 12:26:05;;;;;;;0.22;0.15;;;20.60;99.90;;;;;;5104403;28;20086;-76
2023/09/30 12:28:34;;;;;;;0.20;0.17;;;20.30;99.90;;;;;;5104020;28;20048;-76
2023/09/30 12:31:04;;;;;;;0.28;0.22;;;19.90;99.90;;;;;;5106814;28;20043;-76
2023/09/30 12:33:30;;;;;;;0.75;0.45;;;19.70;99.90;;;;;;5107313;28;20028;-76
2023/09/30 12:35:57;;;;;;;0.00;0.00;;;19.40;99.90;;;;;;5106046;28;20032;-76
2023/09/30 12:38:25;;;;;;;0.63;0.45;;;19.20;99.90;;;;;;5104065;28;20077;-76
2023/09/30 12:40:52;;;;;;;0.22;0.22;;;19.20;99.90;;;;;;5104042;28;20109;-76
2023/09/30 12:43:17;;;;;;;0.00;0.00;;;19.10;99.90;;;;;;5095137;28;20409;-76
2023/09/30 12:45:43;;;;;;;0.00;0.00;;;19.10;99.90;;;;;;5103850;28;20048;-76
2023/09/30 12:48:08;;;;;;;1.00;0.63;;;19.20;99.90;;;;;;5105045;28;20047;-76
2023/09/30 12:50:34;;;;;;;0.03;0.00;;;19.40;99.90;;;;;;5107108;28;20086;-76
2023/09/30 12:52:59;;;;;;;0.03;0.03;;;19.50;99.90;;;;;;5106978;28;20077;-76
2023/09/30 12:55:26;;;;;;;0.20;0.13;;;19.90;99.90;;;;;;5102802;28;20036;-76